sensor_id;sensor_type;location;lat;lon;timestamp;P1;durP1;ratioP1;P2;durP2;ratioP2
36355;SDS011;22384;54.302;18.596;2024-02-23T00:00:06;22.75;;;11.63;;
36355;SDS011;22384;54.302;18.596;2024-02-23T00:02:32;23.10;;;12.80;;
36355;SDS011;22384;54.302;18.596;2024-02-23T00:04:59;20.52;;;12.40;;
36355;SDS011;22384;54.302;18.596;2024-02-23T00:07:25;23.98;;;12.43;;
36355;SDS011;22384;54.302;18.596;2024-02-23T00:09:51;18.67;;;11.88;;
36355;SDS011;22384;54.302;18.596;2024-02-23T00:12:17;22.73;;;11.25;;
36355;SDS011;22384;54.302;18.596;2024-02-23T00:14:43;23.70;;;12.10;;
36355;SDS011;22384;54.302;18.596;2024-02-23T00:17:09;18.30;;;11.35;;
36355;SDS011;22384;54.302;18.596;2024-02-23T00:19:36;24.38;;;12.35;;
36355;SDS011;22384;54.302;18.596;2024-02-23T00:22:02;21.48;;;11.32;;
36355;SDS011;22384;54.302;18.596;2024-02-23T00:24:29;19.30;;;11.60;;
36355;SDS011;22384;54.302;18.596;2024-02-23T00:26:55;21.92;;;12.30;;
36355;SDS011;22384;54.302;18.596;2024-02-23T00:29:21;19.13;;;11.27;;
36355;SDS011;22384;54.302;18.596;2024-02-23T00:31:47;18.60;;;11.25;;
36355;SDS011;22384;54.302;18.596;2024-02-23T00:34:13;20.13;;;11.25;;
36355;SDS011;22384;54.302;18.596;2024-02-23T00:36:40;15.68;;;10.10;;
36355;SDS011;22384;54.302;18.596;2024-02-23T00:39:07;19.25;;;10.85;;
36355;SDS011;22384;54.302;18.596;2024-02-23T00:41:33;18.23;;;11.05;;
36355;SDS011;22384;54.302;18.596;2024-02-23T00:44:00;17.73;;;11.13;;
36355;SDS011;22384;54.302;18.596;2024-02-23T00:46:26;18.52;;;11.48;;
36355;SDS011;22384;54.302;18.596;2024-02-23T00:48:52;17.42;;;10.98;;
36355;SDS011;22384;54.302;18.596;2024-02-23T00:51:19;17.77;;;10.70;;
36355;SDS011;22384;54.302;18.596;2024-02-23T00:53:45;19.27;;;11.02;;
36355;SDS011;22384;54.302;18.596;2024-02-23T00:56:12;18.10;;;10.95;;
36355;SDS011;22384;54.302;18.596;2024-02-23T00:58:38;17.50;;;11.00;;
36355;SDS011;22384;54.302;18.596;2024-02-23T01:01:04;18.73;;;10.68;;
36355;SDS011;22384;54.302;18.596;2024-02-23T01:03:31;19.48;;;10.98;;
36355;SDS011;22384;54.302;18.596;2024-02-23T01:05:57;20.20;;;11.35;;
36355;SDS011;22384;54.302;18.596;2024-02-23T01:08:23;16.50;;;10.73;;
36355;SDS011;22384;54.302;18.596;2024-02-23T01:10:49;21.15;;;11.13;;
36355;SDS011;22384;54.302;18.596;2024-02-23T01:13:15;18.02;;;11.05;;
36355;SDS011;22384;54.302;18.596;2024-02-23T01:15:41;16.60;;;10.10;;
36355;SDS011;22384;54.302;18.596;2024-02-23T01:18:07;22.58;;;10.60;;
36355;SDS011;22384;54.302;18.596;2024-02-23T01:20:34;17.00;;;9.65;;
36355;SDS011;22384;54.302;18.596;2024-02-23T01:23:00;17.60;;;10.40;;
36355;SDS011;22384;54.302;18.596;2024-02-23T01:25:26;23.05;;;11.65;;
36355;SDS011;22384;54.302;18.596;2024-02-23T01:27:52;17.35;;;10.65;;
36355;SDS011;22384;54.302;18.596;2024-02-23T01:30:18;18.90;;;10.85;;
36355;SDS011;22384;54.302;18.596;2024-02-23T01:32:45;18.13;;;10.52;;
36355;SDS011;22384;54.302;18.596;2024-02-23T01:35:11;18.35;;;10.80;;
36355;SDS011;22384;54.302;18.596;2024-02-23T01:37:37;19.65;;;10.52;;
36355;SDS011;22384;54.302;18.596;2024-02-23T01:40:03;25.83;;;10.48;;
36355;SDS011;22384;54.302;18.596;2024-02-23T01:42:30;21.52;;;11.35;;
36355;SDS011;22384;54.302;18.596;2024-02-23T01:44:56;24.13;;;12.75;;
36355;SDS011;22384;54.302;18.596;2024-02-23T01:47:22;24.13;;;13.68;;
36355;SDS011;22384;54.302;18.596;2024-02-23T01:49:49;24.10;;;14.95;;
36355;SDS011;22384;54.302;18.596;2024-02-23T01:52:15;25.98;;;12.90;;
36355;SDS011;22384;54.302;18.596;2024-02-23T01:54:42;23.73;;;12.05;;
36355;SDS011;22384;54.302;18.596;2024-02-23T01:57:09;18.13;;;10.55;;
36355;SDS011;22384;54.302;18.596;2024-02-23T01:59:35;20.27;;;11.00;;
36355;SDS011;22384;54.302;18.596;2024-02-23T02:02:03;29.05;;;11.80;;
36355;SDS011;22384;54.302;18.596;2024-02-23T02:04:29;21.33;;;11.85;;
36355;SDS011;22384;54.302;18.596;2024-02-23T02:06:55;20.55;;;12.02;;
36355;SDS011;22384;54.302;18.596;2024-02-23T02:09:21;19.02;;;12.27;;
36355;SDS011;22384;54.302;18.596;2024-02-23T02:11:48;18.05;;;10.50;;
36355;SDS011;22384;54.302;18.596;2024-02-23T02:14:14;19.33;;;11.13;;
36355;SDS011;22384;54.302;18.596;2024-02-23T02:16:41;18.02;;;10.32;;
36355;SDS011;22384;54.302;18.596;2024-02-23T02:19:09;21.45;;;10.95;;
36355;SDS011;22384;54.302;18.596;2024-02-23T02:21:35;17.75;;;9.98;;
36355;SDS011;22384;54.302;18.596;2024-02-23T02:24:01;22.08;;;10.68;;
36355;SDS011;22384;54.302;18.596;2024-02-23T02:26:28;19.80;;;10.07;;
36355;SDS011;22384;54.302;18.596;2024-02-23T02:28:54;17.00;;;10.60;;
36355;SDS011;22384;54.302;18.596;2024-02-23T02:31:20;17.42;;;11.05;;
36355;SDS011;22384;54.302;18.596;2024-02-23T02:33:46;20.63;;;12.40;;
36355;SDS011;22384;54.302;18.596;2024-02-23T02:36:12;18.25;;;11.88;;
36355;SDS011;22384;54.302;18.596;2024-02-23T02:38:38;20.90;;;11.35;;
36355;SDS011;22384;54.302;18.596;2024-02-23T02:41:04;18.00;;;10.80;;
36355;SDS011;22384;54.302;18.596;2024-02-23T02:43:31;17.58;;;11.27;;
36355;SDS011;22384;54.302;18.596;2024-02-23T02:45:57;18.20;;;11.13;;
36355;SDS011;22384;54.302;18.596;2024-02-23T02:48:23;18.73;;;10.82;;
36355;SDS011;22384;54.302;18.596;2024-02-23T02:50:50;17.25;;;11.70;;
36355;SDS011;22384;54.302;18.596;2024-02-23T02:53:16;33.90;;;16.13;;
36355;SDS011;22384;54.302;18.596;2024-02-23T02:55:43;23.52;;;13.07;;
36355;SDS011;22384;54.302;18.596;2024-02-23T02:58:10;23.95;;;11.45;;
36355;SDS011;22384;54.302;18.596;2024-02-23T03:00:37;23.70;;;12.13;;
36355;SDS011;22384;54.302;18.596;2024-02-23T03:03:03;38.92;;;15.88;;
36355;SDS011;22384;54.302;18.596;2024-02-23T03:05:30;20.30;;;12.07;;
36355;SDS011;22384;54.302;18.596;2024-02-23T03:07:56;19.30;;;11.90;;
36355;SDS011;22384;54.302;18.596;2024-02-23T03:10:22;18.42;;;11.48;;
36355;SDS011;22384;54.302;18.596;2024-02-23T03:12:48;18.83;;;12.13;;
36355;SDS011;22384;54.302;18.596;2024-02-23T03:15:14;22.60;;;13.02;;
36355;SDS011;22384;54.302;18.596;2024-02-23T03:17:40;29.63;;;15.45;;
36355;SDS011;22384;54.302;18.596;2024-02-23T03:20:06;21.15;;;11.73;;
36355;SDS011;22384;54.302;18.596;2024-02-23T03:22:36;20.23;;;11.07;;
36355;SDS011;22384;54.302;18.596;2024-02-23T03:25:03;18.15;;;11.85;;
36355;SDS011;22384;54.302;18.596;2024-02-23T03:27:33;34.47;;;14.77;;
36355;SDS011;22384;54.302;18.596;2024-02-23T03:29:59;29.60;;;15.63;;
36355;SDS011;22384;54.302;18.596;2024-02-23T03:32:25;17.45;;;11.35;;
36355;SDS011;22384;54.302;18.596;2024-02-23T03:34:51;21.88;;;12.80;;
36355;SDS011;22384;54.302;18.596;2024-02-23T03:37:18;17.23;;;11.60;;
36355;SDS011;22384;54.302;18.596;2024-02-23T03:39:44;31.15;;;14.25;;
36355;SDS011;22384;54.302;18.596;2024-02-23T03:42:10;21.48;;;13.07;;
36355;SDS011;22384;54.302;18.596;2024-02-23T03:44:36;18.75;;;11.35;;
36355;SDS011;22384;54.302;18.596;2024-02-23T03:47:02;18.50;;;12.07;;
36355;SDS011;22384;54.302;18.596;2024-02-23T03:49:28;21.27;;;12.48;;
36355;SDS011;22384;54.302;18.596;2024-02-23T03:51:54;28.42;;;14.95;;
36355;SDS011;22384;54.302;18.596;2024-02-23T03:54:20;41.45;;;17.30;;
36355;SDS011;22384;54.302;18.596;2024-02-23T03:56:46;22.77;;;13.10;;
36355;SDS011;22384;54.302;18.596;2024-02-23T03:59:12;17.40;;;11.63;;
36355;SDS011;22384;54.302;18.596;2024-02-23T04:01:39;20.27;;;12.05;;
36355;SDS011;22384;54.302;18.596;2024-02-23T04:04:05;23.23;;;12.55;;
36355;SDS011;22384;54.302;18.596;2024-02-23T04:06:32;38.65;;;15.10;;
36355;SDS011;22384;54.302;18.596;2024-02-23T04:08:59;44.75;;;18.27;;
36355;SDS011;22384;54.302;18.596;2024-02-23T04:11:25;20.35;;;12.15;;
36355;SDS011;22384;54.302;18.596;2024-02-23T04:13:51;20.98;;;11.63;;
36355;SDS011;22384;54.302;18.596;2024-02-23T04:16:17;19.25;;;11.02;;
36355;SDS011;22384;54.302;18.596;2024-02-23T04:18:43;28.38;;;13.13;;
36355;SDS011;22384;54.302;18.596;2024-02-23T04:21:09;41.42;;;17.83;;
36355;SDS011;22384;54.302;18.596;2024-02-23T04:23:35;24.90;;;12.25;;
36355;SDS011;22384;54.302;18.596;2024-02-23T04:26:02;20.15;;;11.80;;
36355;SDS011;22384;54.302;18.596;2024-02-23T04:28:28;17.27;;;11.15;;
36355;SDS011;22384;54.302;18.596;2024-02-23T04:30:56;20.00;;;12.63;;
36355;SDS011;22384;54.302;18.596;2024-02-23T04:33:22;47.85;;;17.05;;
36355;SDS011;22384;54.302;18.596;2024-02-23T04:35:48;39.33;;;15.88;;
36355;SDS011;22384;54.302;18.596;2024-02-23T04:38:14;21.48;;;12.82;;
36355;SDS011;22384;54.302;18.596;2024-02-23T04:40:40;18.25;;;11.30;;
36355;SDS011;22384;54.302;18.596;2024-02-23T04:43:07;20.60;;;11.95;;
36355;SDS011;22384;54.302;18.596;2024-02-23T04:45:33;53.30;;;18.58;;
36355;SDS011;22384;54.302;18.596;2024-02-23T04:47:59;89.50;;;34.80;;
36355;SDS011;22384;54.302;18.596;2024-02-23T04:50:25;25.42;;;13.63;;
36355;SDS011;22384;54.302;18.596;2024-02-23T04:52:51;24.02;;;12.30;;
36355;SDS011;22384;54.302;18.596;2024-02-23T04:55:17;21.58;;;12.80;;
36355;SDS011;22384;54.302;18.596;2024-02-23T04:57:43;21.98;;;12.23;;
36355;SDS011;22384;54.302;18.596;2024-02-23T05:00:09;19.70;;;12.13;;
36355;SDS011;22384;54.302;18.596;2024-02-23T05:02:35;21.83;;;11.80;;
36355;SDS011;22384;54.302;18.596;2024-02-23T05:05:02;17.25;;;10.90;;
36355;SDS011;22384;54.302;18.596;2024-02-23T05:07:30;21.42;;;10.85;;
36355;SDS011;22384;54.302;18.596;2024-02-23T05:09:57;20.38;;;11.77;;
36355;SDS011;22384;54.302;18.596;2024-02-23T05:12:23;19.13;;;11.45;;
36355;SDS011;22384;54.302;18.596;2024-02-23T05:14:49;93.32;;;22.77;;
36355;SDS011;22384;54.302;18.596;2024-02-23T05:17:15;158.10;;;34.08;;
36355;SDS011;22384;54.302;18.596;2024-02-23T05:19:41;59.70;;;19.92;;
36355;SDS011;22384;54.302;18.596;2024-02-23T05:22:07;22.08;;;11.48;;
36355;SDS011;22384;54.302;18.596;2024-02-23T05:24:33;19.27;;;10.32;;
36355;SDS011;22384;54.302;18.596;2024-02-23T05:26:59;40.63;;;16.20;;
36355;SDS011;22384;54.302;18.596;2024-02-23T05:29:27;176.20;;;40.85;;
36355;SDS011;22384;54.302;18.596;2024-02-23T05:31:53;79.05;;;22.00;;
36355;SDS011;22384;54.302;18.596;2024-02-23T05:34:19;32.25;;;12.60;;
36355;SDS011;22384;54.302;18.596;2024-02-23T05:36:46;18.35;;;10.00;;
36355;SDS011;22384;54.302;18.596;2024-02-23T05:39:12;15.35;;;9.77;;
36355;SDS011;22384;54.302;18.596;2024-02-23T05:41:40;22.70;;;10.27;;
36355;SDS011;22384;54.302;18.596;2024-02-23T05:44:06;141.55;;;31.48;;
36355;SDS011;22384;54.302;18.596;2024-02-23T05:46:33;133.98;;;33.85;;
36355;SDS011;22384;54.302;18.596;2024-02-23T05:48:59;37.58;;;14.38;;
36355;SDS011;22384;54.302;18.596;2024-02-23T05:51:25;23.48;;;10.00;;
36355;SDS011;22384;54.302;18.596;2024-02-23T05:53:51;14.80;;;9.77;;
36355;SDS011;22384;54.302;18.596;2024-02-23T05:56:17;13.32;;;9.13;;
36355;SDS011;22384;54.302;18.596;2024-02-23T05:58:43;17.42;;;9.10;;
36355;SDS011;22384;54.302;18.596;2024-02-23T06:01:09;135.10;;;30.83;;
36355;SDS011;22384;54.302;18.596;2024-02-23T06:03:35;90.13;;;24.23;;
36355;SDS011;22384;54.302;18.596;2024-02-23T06:06:01;22.67;;;9.88;;
36355;SDS011;22384;54.302;18.596;2024-02-23T06:08:27;10.80;;;8.00;;
36355;SDS011;22384;54.302;18.596;2024-02-23T06:10:53;11.25;;;7.10;;
36355;SDS011;22384;54.302;18.596;2024-02-23T06:13:19;11.77;;;7.40;;
36355;SDS011;22384;54.302;18.596;2024-02-23T06:15:46;13.55;;;6.72;;
36355;SDS011;22384;54.302;18.596;2024-02-23T06:20:42;12.48;;;7.25;;
36355;SDS011;22384;54.302;18.596;2024-02-23T06:23:08;10.85;;;7.35;;
36355;SDS011;22384;54.302;18.596;2024-02-23T06:47:32;12.70;;;7.45;;
36355;SDS011;22384;54.302;18.596;2024-02-23T06:49:58;26.45;;;14.98;;
36355;SDS011;22384;54.302;18.596;2024-02-23T06:52:24;23.38;;;14.10;;
36355;SDS011;22384;54.302;18.596;2024-02-23T06:54:51;120.68;;;35.33;;
36355;SDS011;22384;54.302;18.596;2024-02-23T06:57:17;57.28;;;19.52;;
36355;SDS011;22384;54.302;18.596;2024-02-23T06:59:43;21.73;;;10.32;;
36355;SDS011;22384;54.302;18.596;2024-02-23T07:02:09;13.20;;;6.63;;
36355;SDS011;22384;54.302;18.596;2024-02-23T07:10:30;6.75;;;4.28;;
36355;SDS011;22384;54.302;18.596;2024-02-23T07:13:11;10.13;;;4.60;;
36355;SDS011;22384;54.302;18.596;2024-02-23T07:15:37;10.63;;;4.75;;
36355;SDS011;22384;54.302;18.596;2024-02-23T07:18:31;7.63;;;4.35;;
36355;SDS011;22384;54.302;18.596;2024-02-23T07:24:16;10.30;;;4.75;;
36355;SDS011;22384;54.302;18.596;2024-02-23T07:26:42;5.43;;;3.65;;
36355;SDS011;22384;54.302;18.596;2024-02-23T07:29:24;10.95;;;4.65;;
36355;SDS011;22384;54.302;18.596;2024-02-23T07:34:26;10.00;;;4.80;;
36355;SDS011;22384;54.302;18.596;2024-02-23T07:36:53;8.18;;;4.13;;
36355;SDS011;22384;54.302;18.596;2024-02-23T07:39:34;5.45;;;3.58;;
36355;SDS011;22384;54.302;18.596;2024-02-23T07:44:31;7.32;;;3.20;;
36355;SDS011;22384;54.302;18.596;2024-02-23T07:46:57;8.05;;;3.67;;
36355;SDS011;22384;54.302;18.596;2024-02-23T07:49:24;5.63;;;4.20;;
36355;SDS011;22384;54.302;18.596;2024-02-23T07:51:52;6.50;;;3.63;;
36355;SDS011;22384;54.302;18.596;2024-02-23T07:54:18;4.57;;;2.70;;
36355;SDS011;22384;54.302;18.596;2024-02-23T07:56:44;7.75;;;4.30;;
36355;SDS011;22384;54.302;18.596;2024-02-23T07:59:10;4.80;;;3.30;;
36355;SDS011;22384;54.302;18.596;2024-02-23T08:01:36;4.25;;;2.70;;
36355;SDS011;22384;54.302;18.596;2024-02-23T08:04:02;2.97;;;2.00;;
36355;SDS011;22384;54.302;18.596;2024-02-23T08:06:28;6.72;;;4.30;;
36355;SDS011;22384;54.302;18.596;2024-02-23T08:08:54;7.63;;;3.20;;
36355;SDS011;22384;54.302;18.596;2024-02-23T08:11:21;5.63;;;3.17;;
36355;SDS011;22384;54.302;18.596;2024-02-23T08:13:47;5.05;;;2.40;;
36355;SDS011;22384;54.302;18.596;2024-02-23T08:16:15;3.28;;;2.08;;
36355;SDS011;22384;54.302;18.596;2024-02-23T08:18:42;3.15;;;1.70;;
36355;SDS011;22384;54.302;18.596;2024-02-23T08:21:09;2.03;;;1.30;;
36355;SDS011;22384;54.302;18.596;2024-02-23T08:23:36;6.20;;;1.90;;
36355;SDS011;22384;54.302;18.596;2024-02-23T08:26:02;2.88;;;1.60;;
36355;SDS011;22384;54.302;18.596;2024-02-23T08:28:28;2.97;;;2.00;;
36355;SDS011;22384;54.302;18.596;2024-02-23T08:30:54;2.78;;;1.88;;
36355;SDS011;22384;54.302;18.596;2024-02-23T08:33:20;3.83;;;1.55;;
36355;SDS011;22384;54.302;18.596;2024-02-23T08:35:46;2.70;;;1.40;;
36355;SDS011;22384;54.302;18.596;2024-02-23T08:38:15;5.30;;;1.67;;
36355;SDS011;22384;54.302;18.596;2024-02-23T08:40:41;2.63;;;1.40;;
36355;SDS011;22384;54.302;18.596;2024-02-23T08:43:07;2.72;;;1.90;;
36355;SDS011;22384;54.302;18.596;2024-02-23T08:45:33;4.93;;;2.85;;
36355;SDS011;22384;54.302;18.596;2024-02-23T08:47:59;4.93;;;2.00;;
36355;SDS011;22384;54.302;18.596;2024-02-23T08:50:25;2.85;;;1.23;;
36355;SDS011;22384;54.302;18.596;2024-02-23T08:52:51;3.42;;;1.60;;
36355;SDS011;22384;54.302;18.596;2024-02-23T08:55:17;3.50;;;1.50;;
36355;SDS011;22384;54.302;18.596;2024-02-23T08:57:44;2.67;;;1.60;;
36355;SDS011;22384;54.302;18.596;2024-02-23T09:00:10;1.35;;;0.98;;
36355;SDS011;22384;54.302;18.596;2024-02-23T09:02:36;4.63;;;0.95;;
36355;SDS011;22384;54.302;18.596;2024-02-23T09:05:03;3.17;;;1.42;;
36355;SDS011;22384;54.302;18.596;2024-02-23T09:07:29;4.88;;;1.35;;
36355;SDS011;22384;54.302;18.596;2024-02-23T09:09:55;1.88;;;0.85;;
36355;SDS011;22384;54.302;18.596;2024-02-23T09:21:31;1.83;;;1.08;;
36355;SDS011;22384;54.302;18.596;2024-02-23T09:23:58;2.38;;;1.30;;
36355;SDS011;22384;54.302;18.596;2024-02-23T09:26:24;3.25;;;1.10;;
36355;SDS011;22384;54.302;18.596;2024-02-23T09:28:50;4.13;;;1.35;;
36355;SDS011;22384;54.302;18.596;2024-02-23T09:31:16;4.65;;;1.20;;
36355;SDS011;22384;54.302;18.596;2024-02-23T09:33:42;4.25;;;1.30;;
36355;SDS011;22384;54.302;18.596;2024-02-23T09:36:09;5.75;;;1.50;;
36355;SDS011;22384;54.302;18.596;2024-02-23T09:38:35;4.93;;;1.20;;
36355;SDS011;22384;54.302;18.596;2024-02-23T09:41:01;3.67;;;0.90;;
36355;SDS011;22384;54.302;18.596;2024-02-23T09:43:30;4.07;;;1.20;;
36355;SDS011;22384;54.302;18.596;2024-02-23T09:45:57;1.63;;;0.70;;
36355;SDS011;22384;54.302;18.596;2024-02-23T09:48:24;3.03;;;1.00;;
36355;SDS011;22384;54.302;18.596;2024-02-23T09:50:50;1.13;;;0.77;;
36355;SDS011;22384;54.302;18.596;2024-02-23T09:53:17;3.63;;;0.93;;
36355;SDS011;22384;54.302;18.596;2024-02-23T09:55:47;3.67;;;1.10;;
36355;SDS011;22384;54.302;18.596;2024-02-23T09:58:13;4.28;;;0.88;;
36355;SDS011;22384;54.302;18.596;2024-02-23T10:09:52;5.88;;;1.10;;
36355;SDS011;22384;54.302;18.596;2024-02-23T10:12:20;3.75;;;0.90;;
36355;SDS011;22384;54.302;18.596;2024-02-23T10:14:46;1.23;;;0.45;;
36355;SDS011;22384;54.302;18.596;2024-02-23T10:17:15;1.15;;;0.90;;
36355;SDS011;22384;54.302;18.596;2024-02-23T10:22:44;9.77;;;0.80;;
36355;SDS011;22384;54.302;18.596;2024-02-23T10:25:11;3.30;;;0.82;;
36355;SDS011;22384;54.302;18.596;2024-02-23T10:27:40;3.13;;;0.75;;
36355;SDS011;22384;54.302;18.596;2024-02-23T10:30:07;1.57;;;0.70;;
36355;SDS011;22384;54.302;18.596;2024-02-23T10:32:36;1.80;;;0.60;;
36355;SDS011;22384;54.302;18.596;2024-02-23T10:35:23;1.13;;;0.90;;
36355;SDS011;22384;54.302;18.596;2024-02-23T10:37:50;1.20;;;0.57;;
36355;SDS011;22384;54.302;18.596;2024-02-23T10:40:18;1.40;;;0.65;;
36355;SDS011;22384;54.302;18.596;2024-02-23T10:42:45;3.08;;;0.73;;
36355;SDS011;22384;54.302;18.596;2024-02-23T10:45:16;3.55;;;0.70;;
36355;SDS011;22384;54.302;18.596;2024-02-23T10:47:42;2.72;;;0.68;;
36355;SDS011;22384;54.302;18.596;2024-02-23T10:50:08;1.75;;;0.70;;
36355;SDS011;22384;54.302;18.596;2024-02-23T10:52:35;1.52;;;0.50;;
36355;SDS011;22384;54.302;18.596;2024-02-23T10:55:01;2.05;;;0.70;;
36355;SDS011;22384;54.302;18.596;2024-02-23T10:57:30;1.95;;;1.08;;
36355;SDS011;22384;54.302;18.596;2024-02-23T11:09:20;0.70;;;0.43;;
36355;SDS011;22384;54.302;18.596;2024-02-23T11:11:58;2.60;;;0.82;;
36355;SDS011;22384;54.302;18.596;2024-02-23T11:14:31;1.67;;;0.85;;
36355;SDS011;22384;54.302;18.596;2024-02-23T11:16:57;1.98;;;0.75;;
36355;SDS011;22384;54.302;18.596;2024-02-23T11:22:09;1.27;;;0.70;;
36355;SDS011;22384;54.302;18.596;2024-02-23T11:24:41;3.63;;;0.98;;
36355;SDS011;22384;54.302;18.596;2024-02-23T11:30:25;3.70;;;0.70;;
36355;SDS011;22384;54.302;18.596;2024-02-23T11:33:07;4.72;;;0.80;;
36355;SDS011;22384;54.302;18.596;2024-02-23T11:38:57;4.28;;;1.23;;
36355;SDS011;22384;54.302;18.596;2024-02-23T11:41:23;2.63;;;1.20;;
36355;SDS011;22384;54.302;18.596;2024-02-23T11:43:53;2.13;;;0.90;;
36355;SDS011;22384;54.302;18.596;2024-02-23T11:46:20;3.25;;;0.85;;
36355;SDS011;22384;54.302;18.596;2024-02-23T11:48:47;1.38;;;1.10;;
36355;SDS011;22384;54.302;18.596;2024-02-23T11:51:18;4.72;;;1.30;;
36355;SDS011;22384;54.302;18.596;2024-02-23T11:53:44;2.55;;;1.13;;
36355;SDS011;22384;54.302;18.596;2024-02-23T11:56:11;3.10;;;1.75;;
36355;SDS011;22384;54.302;18.596;2024-02-23T12:01:37;4.07;;;1.00;;
36355;SDS011;22384;54.302;18.596;2024-02-23T12:04:04;2.00;;;0.88;;
36355;SDS011;22384;54.302;18.596;2024-02-23T12:06:39;2.85;;;0.80;;
36355;SDS011;22384;54.302;18.596;2024-02-23T12:09:05;2.40;;;0.63;;
36355;SDS011;22384;54.302;18.596;2024-02-23T12:11:47;1.92;;;0.77;;
36355;SDS011;22384;54.302;18.596;2024-02-23T12:14:28;2.25;;;1.00;;
36355;SDS011;22384;54.302;18.596;2024-02-23T12:16:57;2.38;;;1.35;;
36355;SDS011;22384;54.302;18.596;2024-02-23T12:19:31;5.78;;;1.42;;
36355;SDS011;22384;54.302;18.596;2024-02-23T12:22:15;1.00;;;0.68;;
36355;SDS011;22384;54.302;18.596;2024-02-23T12:27:54;5.18;;;1.20;;
36355;SDS011;22384;54.302;18.596;2024-02-23T12:30:21;9.02;;;3.78;;
36355;SDS011;22384;54.302;18.596;2024-02-23T12:33:25;0.77;;;0.55;;
36355;SDS011;22384;54.302;18.596;2024-02-23T12:36:05;3.08;;;1.40;;
36355;SDS011;22384;54.302;18.596;2024-02-23T12:41:46;1.05;;;0.65;;
36355;SDS011;22384;54.302;18.596;2024-02-23T12:44:35;0.98;;;0.60;;
36355;SDS011;22384;54.302;18.596;2024-02-23T12:53:29;1.17;;;0.82;;
36355;SDS011;22384;54.302;18.596;2024-02-23T12:55:56;2.53;;;1.30;;
36355;SDS011;22384;54.302;18.596;2024-02-23T12:58:22;4.45;;;1.27;;
36355;SDS011;22384;54.302;18.596;2024-02-23T13:00:48;5.32;;;3.08;;
36355;SDS011;22384;54.302;18.596;2024-02-23T13:03:14;7.13;;;4.63;;
36355;SDS011;22384;54.302;18.596;2024-02-23T13:05:41;22.30;;;12.57;;
36355;SDS011;22384;54.302;18.596;2024-02-23T13:14:16;4.32;;;1.65;;
36355;SDS011;22384;54.302;18.596;2024-02-23T13:20:03;3.08;;;0.90;;
36355;SDS011;22384;54.302;18.596;2024-02-23T13:22:44;9.13;;;1.50;;
36355;SDS011;22384;54.302;18.596;2024-02-23T13:31:16;7.07;;;2.28;;
36355;SDS011;22384;54.302;18.596;2024-02-23T13:34:00;5.60;;;1.83;;
36355;SDS011;22384;54.302;18.596;2024-02-23T13:36:26;7.40;;;2.13;;
36355;SDS011;22384;54.302;18.596;2024-02-23T13:38:52;12.90;;;2.03;;
36355;SDS011;22384;54.302;18.596;2024-02-23T13:47:39;8.45;;;2.17;;
36355;SDS011;22384;54.302;18.596;2024-02-23T13:50:05;15.68;;;3.55;;
36355;SDS011;22384;54.302;18.596;2024-02-23T13:52:31;5.60;;;1.85;;
36355;SDS011;22384;54.302;18.596;2024-02-23T13:55:03;6.72;;;1.33;;
36355;SDS011;22384;54.302;18.596;2024-02-23T13:57:48;2.47;;;1.10;;
36355;SDS011;22384;54.302;18.596;2024-02-23T14:00:53;16.63;;;4.05;;
36355;SDS011;22384;54.302;18.596;2024-02-23T14:06:22;6.40;;;1.63;;
36355;SDS011;22384;54.302;18.596;2024-02-23T14:08:48;4.43;;;1.50;;
36355;SDS011;22384;54.302;18.596;2024-02-23T14:11:15;18.42;;;4.88;;
36355;SDS011;22384;54.302;18.596;2024-02-23T14:13:41;1.63;;;0.98;;
36355;SDS011;22384;54.302;18.596;2024-02-23T14:16:09;18.02;;;6.45;;
36355;SDS011;22384;54.302;18.596;2024-02-23T14:18:35;12.10;;;3.15;;
36355;SDS011;22384;54.302;18.596;2024-02-23T14:21:04;13.30;;;4.13;;
36355;SDS011;22384;54.302;18.596;2024-02-23T14:23:30;11.57;;;3.33;;
36355;SDS011;22384;54.302;18.596;2024-02-23T14:26:05;15.60;;;3.33;;
36355;SDS011;22384;54.302;18.596;2024-02-23T14:37:28;5.57;;;2.40;;
36355;SDS011;22384;54.302;18.596;2024-02-23T14:40:00;8.80;;;4.00;;
36355;SDS011;22384;54.302;18.596;2024-02-23T14:42:36;8.45;;;4.18;;
36355;SDS011;22384;54.302;18.596;2024-02-23T14:45:04;10.73;;;4.97;;
36355;SDS011;22384;54.302;18.596;2024-02-23T14:48:01;9.95;;;5.35;;
36355;SDS011;22384;54.302;18.596;2024-02-23T14:53:44;6.35;;;3.28;;
36355;SDS011;22384;54.302;18.596;2024-02-23T14:59:08;12.20;;;4.10;;
36355;SDS011;22384;54.302;18.596;2024-02-23T15:04:52;8.23;;;2.75;;
36355;SDS011;22384;54.302;18.596;2024-02-23T15:07:31;11.13;;;3.67;;
36355;SDS011;22384;54.302;18.596;2024-02-23T15:09:58;16.60;;;4.85;;
36355;SDS011;22384;54.302;18.596;2024-02-23T15:12:40;11.52;;;3.15;;
36355;SDS011;22384;54.302;18.596;2024-02-23T15:24:18;8.25;;;3.38;;
36355;SDS011;22384;54.302;18.596;2024-02-23T15:30:06;5.80;;;3.30;;
36355;SDS011;22384;54.302;18.596;2024-02-23T15:35:36;13.15;;;5.40;;
36355;SDS011;22384;54.302;18.596;2024-02-23T15:38:15;15.70;;;5.68;;
36355;SDS011;22384;54.302;18.596;2024-02-23T15:40:41;11.15;;;3.92;;
36355;SDS011;22384;54.302;18.596;2024-02-23T15:46:30;20.73;;;9.13;;
36355;SDS011;22384;54.302;18.596;2024-02-23T15:49:16;24.45;;;8.63;;
36355;SDS011;22384;54.302;18.596;2024-02-23T15:57:57;14.10;;;7.22;;
36355;SDS011;22384;54.302;18.596;2024-02-23T16:06:26;24.98;;;6.85;;
36355;SDS011;22384;54.302;18.596;2024-02-23T16:09:26;30.30;;;8.45;;
36355;SDS011;22384;54.302;18.596;2024-02-23T16:14:52;22.80;;;6.03;;
36355;SDS011;22384;54.302;18.596;2024-02-23T16:17:22;14.18;;;4.20;;
36355;SDS011;22384;54.302;18.596;2024-02-23T16:19:57;20.08;;;7.25;;
36355;SDS011;22384;54.302;18.596;2024-02-23T16:22:35;28.90;;;8.13;;
36355;SDS011;22384;54.302;18.596;2024-02-23T16:28:02;37.65;;;12.02;;
36355;SDS011;22384;54.302;18.596;2024-02-23T16:30:41;18.60;;;7.30;;
36355;SDS011;22384;54.302;18.596;2024-02-23T16:36:13;54.95;;;20.70;;
36355;SDS011;22384;54.302;18.596;2024-02-23T16:38:55;89.18;;;40.72;;
36355;SDS011;22384;54.302;18.596;2024-02-23T16:41:38;157.52;;;68.07;;
36355;SDS011;22384;54.302;18.596;2024-02-23T16:44:17;77.80;;;33.55;;
36355;SDS011;22384;54.302;18.596;2024-02-23T16:49:40;24.65;;;13.73;;
36355;SDS011;22384;54.302;18.596;2024-02-23T16:58:02;31.92;;;19.60;;
36355;SDS011;22384;54.302;18.596;2024-02-23T17:00:28;106.35;;;39.45;;
36355;SDS011;22384;54.302;18.596;2024-02-23T17:03:27;166.00;;;51.65;;
36355;SDS011;22384;54.302;18.596;2024-02-23T17:06:06;122.32;;;36.53;;
36355;SDS011;22384;54.302;18.596;2024-02-23T17:08:32;45.33;;;14.75;;
36355;SDS011;22384;54.302;18.596;2024-02-23T17:11:14;171.77;;;47.47;;
36355;SDS011;22384;54.302;18.596;2024-02-23T17:13:55;152.80;;;62.03;;
36355;SDS011;22384;54.302;18.596;2024-02-23T17:16:37;45.65;;;19.05;;
36355;SDS011;22384;54.302;18.596;2024-02-23T17:19:03;12.82;;;5.72;;
36355;SDS011;22384;54.302;18.596;2024-02-23T17:22:03;10.23;;;5.38;;
36355;SDS011;22384;54.302;18.596;2024-02-23T17:31:07;10.52;;;4.97;;
36355;SDS011;22384;54.302;18.596;2024-02-23T17:33:46;18.52;;;8.40;;
36355;SDS011;22384;54.302;18.596;2024-02-23T17:36:27;22.25;;;9.50;;
36355;SDS011;22384;54.302;18.596;2024-02-23T17:41:57;15.32;;;6.85;;
36355;SDS011;22384;54.302;18.596;2024-02-23T17:44:38;13.27;;;5.35;;